sensor_id;sensor_type;location;lat;lon;timestamp;pressure;altitude;pressure_sealevel;temperature;humidity
17072;BME280;7731;50.720;6.912;2022-12-16T00:01:26;99468.94;;;-8.78;100.00
17072;BME280;7731;50.720;6.912;2022-12-16T00:03:59;99467.94;;;-8.34;100.00
17072;BME280;7731;50.720;6.912;2022-12-16T00:06:32;99462.97;;;-8.34;100.00
17072;BME280;7731;50.720;6.912;2022-12-16T00:09:02;99465.38;;;-8.40;100.00
17072;BME280;7731;50.720;6.912;2022-12-16T00:11:32;99469.47;;;-8.46;100.00
17072;BME280;7731;50.720;6.912;2022-12-16T00:14:03;99475.31;;;-8.40;100.00
17072;BME280;7731;50.720;6.912;2022-12-16T00:16:34;99466.75;;;-8.59;100.00
17072;BME280;7731;50.720;6.912;2022-12-16T00:19:08;99480.69;;;-8.69;100.00
17072;BME280;7731;50.720;6.912;2022-12-16T00:21:39;99476.69;;;-8.61;100.00
17072;BME280;7731;50.720;6.912;2022-12-16T00:24:09;99479.06;;;-8.67;100.00
17072;BME280;7731;50.720;6.912;2022-12-16T00:26:39;99477.50;;;-8.62;100.00
17072;BME280;7731;50.720;6.912;2022-12-16T00:29:09;99477.38;;;-8.68;100.00
17072;BME280;7731;50.720;6.912;2022-12-16T00:31:39;99486.31;;;-8.80;100.00
17072;BME280;7731;50.720;6.912;2022-12-16T00:34:17;99490.31;;;-8.88;100.00
17072;BME280;7731;50.720;6.912;2022-12-16T00:36:47;99491.31;;;-8.80;100.00
17072;BME280;7731;50.720;6.912;2022-12-16T00:39:18;99502.38;;;-8.64;100.00
17072;BME280;7731;50.720;6.912;2022-12-16T00:41:48;99500.06;;;-8.53;100.00
17072;BME280;7731;50.720;6.912;2022-12-16T00:44:18;99493.50;;;-8.48;100.00
17072;BME280;7731;50.720;6.912;2022-12-16T00:46:48;99492.56;;;-8.54;100.00
17072;BME280;7731;50.720;6.912;2022-12-16T00:49:23;99495.13;;;-8.50;100.00
17072;BME280;7731;50.720;6.912;2022-12-16T00:51:56;99488.53;;;-8.46;100.00
17072;BME280;7731;50.720;6.912;2022-12-16T00:54:27;99490.97;;;-8.49;100.00
17072;BME280;7731;50.720;6.912;2022-12-16T00:56:57;99492.44;;;-8.62;100.00
17072;BME280;7731;50.720;6.912;2022-12-16T00:59:27;99493.25;;;-8.62;100.00
17072;BME280;7731;50.720;6.912;2022-12-16T01:01:58;99490.78;;;-8.60;100.00
17072;BME280;7731;50.720;6.912;2022-12-16T01:04:31;99489.78;;;-8.71;100.00
17072;BME280;7731;50.720;6.912;2022-12-16T01:07:01;99485.53;;;-8.75;100.00
17072;BME280;7731;50.720;6.912;2022-12-16T01:09:31;99484.53;;;-8.87;100.00
17072;BME280;7731;50.720;6.912;2022-12-16T01:12:03;99487.72;;;-8.92;100.00
17072;BME280;7731;50.720;6.912;2022-12-16T01:14:33;99488.00;;;-8.77;100.00
17072;BME280;7731;50.720;6.912;2022-12-16T01:17:03;99498.94;;;-8.70;100.00
17072;BME280;7731;50.720;6.912;2022-12-16T01:19:36;99495.22;;;-8.91;100.00
17072;BME280;7731;50.720;6.912;2022-12-16T01:22:06;99495.88;;;-9.01;100.00
17072;BME280;7731;50.720;6.912;2022-12-16T01:24:36;99496.69;;;-9.02;100.00
17072;BME280;7731;50.720;6.912;2022-12-16T01:27:06;99498.47;;;-8.95;100.00
17072;BME280;7731;50.720;6.912;2022-12-16T01:29:37;99500.47;;;-9.21;100.00
17072;BME280;7731;50.720;6.912;2022-12-16T01:32:11;99504.09;;;-9.05;100.00
17072;BME280;7731;50.720;6.912;2022-12-16T01:34:48;99502.66;;;-8.92;100.00
17072;BME280;7731;50.720;6.912;2022-12-16T01:37:22;99506.22;;;-9.24;100.00
17072;BME280;7731;50.720;6.912;2022-12-16T01:39:52;99505.69;;;-9.09;100.00
17072;BME280;7731;50.720;6.912;2022-12-16T01:42:23;99501.59;;;-9.05;100.00
17072;BME280;7731;50.720;6.912;2022-12-16T01:44:54;99510.91;;;-8.96;100.00
17072;BME280;7731;50.720;6.912;2022-12-16T01:47:30;99517.66;;;-8.89;100.00
17072;BME280;7731;50.720;6.912;2022-12-16T01:50:10;99515.56;;;-9.12;100.00
17072;BME280;7731;50.720;6.912;2022-12-16T01:52:49;99516.28;;;-9.18;100.00
17072;BME280;7731;50.720;6.912;2022-12-16T01:55:27;99524.50;;;-9.22;100.00
17072;BME280;7731;50.720;6.912;2022-12-16T01:58:05;99517.88;;;-9.21;100.00
17072;BME280;7731;50.720;6.912;2022-12-16T02:00:38;99523.25;;;-9.01;100.00
17072;BME280;7731;50.720;6.912;2022-12-16T02:03:10;99520.13;;;-8.91;100.00
17072;BME280;7731;50.720;6.912;2022-12-16T02:05:45;99513.59;;;-8.86;100.00
17072;BME280;7731;50.720;6.912;2022-12-16T02:08:17;99517.81;;;-8.80;100.00
17072;BME280;7731;50.720;6.912;2022-12-16T02:11:06;99521.09;;;-8.84;100.00
17072;BME280;7731;50.720;6.912;2022-12-16T02:13:59;99518.41;;;-8.95;100.00
17072;BME280;7731;50.720;6.912;2022-12-16T02:16:41;99517.09;;;-8.74;100.00
17072;BME280;7731;50.720;6.912;2022-12-16T02:19:54;99524.59;;;-9.16;100.00
17072;BME280;7731;50.720;6.912;2022-12-16T02:22:50;99522.00;;;-9.22;100.00
17072;BME280;7731;50.720;6.912;2022-12-16T02:29:31;99526.13;;;-9.24;100.00
17072;BME280;7731;50.720;6.912;2022-12-16T02:32:21;99528.63;;;-9.22;100.00
17072;BME280;7731;50.720;6.912;2022-12-16T02:35:06;99527.94;;;-9.17;100.00
17072;BME280;7731;50.720;6.912;2022-12-16T02:37:44;99535.88;;;-9.33;100.00
17072;BME280;7731;50.720;6.912;2022-12-16T02:40:27;99531.09;;;-9.24;100.00
17072;BME280;7731;50.720;6.912;2022-12-16T02:43:03;99534.50;;;-9.19;100.00
17072;BME280;7731;50.720;6.912;2022-12-16T02:45:37;99528.13;;;-9.06;100.00
17072;BME280;7731;50.720;6.912;2022-12-16T02:48:14;99534.38;;;-9.25;100.00
17072;BME280;7731;50.720;6.912;2022-12-16T02:50:48;99539.28;;;-9.28;100.00
17072;BME280;7731;50.720;6.912;2022-12-16T02:53:21;99534.59;;;-9.14;100.00
17072;BME280;7731;50.720;6.912;2022-12-16T02:56:04;99537.25;;;-9.06;100.00
17072;BME280;7731;50.720;6.912;2022-12-16T02:58:46;99541.13;;;-9.19;100.00
17072;BME280;7731;50.720;6.912;2022-12-16T03:01:25;99544.59;;;-9.11;100.00
17072;BME280;7731;50.720;6.912;2022-12-16T03:04:10;99548.13;;;-9.01;100.00
17072;BME280;7731;50.720;6.912;2022-12-16T03:06:46;99542.44;;;-8.94;100.00
17072;BME280;7731;50.720;6.912;2022-12-16T03:09:27;99536.63;;;-8.96;100.00
17072;BME280;7731;50.720;6.912;2022-12-16T03:12:02;99535.75;;;-8.98;100.00
17072;BME280;7731;50.720;6.912;2022-12-16T03:14:38;99541.47;;;-9.02;100.00
17072;BME280;7731;50.720;6.912;2022-12-16T03:17:10;99534.84;;;-9.02;100.00
17072;BME280;7731;50.720;6.912;2022-12-16T03:19:53;99523.03;;;-9.12;100.00
17072;BME280;7731;50.720;6.912;2022-12-16T03:22:28;99530.69;;;-9.03;100.00
17072;BME280;7731;50.720;6.912;2022-12-16T03:25:01;99537.00;;;-9.19;100.00
17072;BME280;7731;50.720;6.912;2022-12-16T03:27:39;99526.44;;;-9.08;100.00
17072;BME280;7731;50.720;6.912;2022-12-16T03:30:18;99532.53;;;-9.35;100.00
17072;BME280;7731;50.720;6.912;2022-12-16T03:32:57;99530.22;;;-9.26;100.00
17072;BME280;7731;50.720;6.912;2022-12-16T03:35:37;99535.25;;;-9.24;100.00
17072;BME280;7731;50.720;6.912;2022-12-16T03:38:11;99539.41;;;-9.22;100.00
17072;BME280;7731;50.720;6.912;2022-12-16T03:40:44;99540.38;;;-9.17;100.00
17072;BME280;7731;50.720;6.912;2022-12-16T03:43:15;99539.75;;;-9.05;100.00
17072;BME280;7731;50.720;6.912;2022-12-16T03:45:53;99543.16;;;-9.01;100.00
17072;BME280;7731;50.720;6.912;2022-12-16T03:48:25;99547.97;;;-9.10;100.00
17072;BME280;7731;50.720;6.912;2022-12-16T03:50:59;99538.94;;;-9.05;100.00
17072;BME280;7731;50.720;6.912;2022-12-16T03:53:29;99535.06;;;-8.89;100.00
17072;BME280;7731;50.720;6.912;2022-12-16T03:56:00;99543.59;;;-8.80;100.00
17072;BME280;7731;50.720;6.912;2022-12-16T03:58:33;99543.03;;;-9.07;99.75
17072;BME280;7731;50.720;6.912;2022-12-16T04:01:07;99549.69;;;-9.06;100.00
17072;BME280;7731;50.720;6.912;2022-12-16T04:03:41;99542.84;;;-9.17;100.00
17072;BME280;7731;50.720;6.912;2022-12-16T04:06:14;99542.91;;;-9.13;100.00
17072;BME280;7731;50.720;6.912;2022-12-16T04:08:45;99547.81;;;-9.18;100.00
17072;BME280;7731;50.720;6.912;2022-12-16T04:11:15;99544.09;;;-9.36;100.00
17072;BME280;7731;50.720;6.912;2022-12-16T04:13:58;99555.56;;;-9.42;100.00
17072;BME280;7731;50.720;6.912;2022-12-16T04:16:41;99554.16;;;-9.31;100.00
17072;BME280;7731;50.720;6.912;2022-12-16T04:19:28;99554.38;;;-9.20;100.00
17072;BME280;7731;50.720;6.912;2022-12-16T04:22:20;99552.75;;;-9.20;100.00
17072;BME280;7731;50.720;6.912;2022-12-16T04:25:11;99559.44;;;-9.16;100.00
17072;BME280;7731;50.720;6.912;2022-12-16T04:27:43;99556.28;;;-9.08;100.00
17072;BME280;7731;50.720;6.912;2022-12-16T04:30:17;99553.13;;;-9.01;100.00
17072;BME280;7731;50.720;6.912;2022-12-16T04:32:56;99546.13;;;-9.18;100.00
17072;BME280;7731;50.720;6.912;2022-12-16T04:35:51;99556.16;;;-9.14;100.00
17072;BME280;7731;50.720;6.912;2022-12-16T04:38:37;99553.53;;;-7.21;97.49
17072;BME280;7731;50.720;6.912;2022-12-16T04:41:19;99569.34;;;-8.30;93.37
17072;BME280;7731;50.720;6.912;2022-12-16T04:44:04;99567.38;;;-8.48;95.98
17072;BME280;7731;50.720;6.912;2022-12-16T04:46:48;99567.72;;;-8.74;97.18
17072;BME280;7731;50.720;6.912;2022-12-16T04:49:30;99561.31;;;-9.05;98.26
17072;BME280;7731;50.720;6.912;2022-12-16T04:52:15;99569.59;;;-9.06;100.00
17072;BME280;7731;50.720;6.912;2022-12-16T04:55:07;99576.19;;;-9.08;99.76
17072;BME280;7731;50.720;6.912;2022-12-16T04:57:53;99566.78;;;-9.22;100.00
17072;BME280;7731;50.720;6.912;2022-12-16T05:00:35;99589.09;;;-9.25;100.00
17072;BME280;7731;50.720;6.912;2022-12-16T05:03:18;99589.16;;;-9.22;100.00
17072;BME280;7731;50.720;6.912;2022-12-16T05:06:01;99592.81;;;-9.07;100.00
17072;BME280;7731;50.720;6.912;2022-12-16T05:08:44;99590.56;;;-9.35;100.00
17072;BME280;7731;50.720;6.912;2022-12-16T05:11:29;99604.03;;;-9.25;100.00
17072;BME280;7731;50.720;6.912;2022-12-16T05:14:12;99613.41;;;-9.13;100.00
17072;BME280;7731;50.720;6.912;2022-12-16T05:16:54;99587.38;;;-9.29;100.00
17072;BME280;7731;50.720;6.912;2022-12-16T05:19:37;99615.47;;;-9.33;100.00
17072;BME280;7731;50.720;6.912;2022-12-16T05:22:19;99613.66;;;-9.39;100.00
17072;BME280;7731;50.720;6.912;2022-12-16T05:25:02;99614.91;;;-9.58;100.00
17072;BME280;7731;50.720;6.912;2022-12-16T05:27:49;99616.53;;;-9.58;100.00
17072;BME280;7731;50.720;6.912;2022-12-16T05:30:32;99618.56;;;-9.42;100.00
17072;BME280;7731;50.720;6.912;2022-12-16T05:33:15;99614.97;;;-9.55;100.00
17072;BME280;7731;50.720;6.912;2022-12-16T05:35:58;99620.03;;;-9.52;100.00
17072;BME280;7731;50.720;6.912;2022-12-16T05:38:40;99621.94;;;-9.41;100.00
17072;BME280;7731;50.720;6.912;2022-12-16T05:41:23;99617.94;;;-9.33;100.00
17072;BME280;7731;50.720;6.912;2022-12-16T05:44:10;99634.94;;;-9.15;100.00
17072;BME280;7731;50.720;6.912;2022-12-16T05:46:53;99641.28;;;-9.28;100.00
17072;BME280;7731;50.720;6.912;2022-12-16T05:49:36;99654.69;;;-9.58;100.00
17072;BME280;7731;50.720;6.912;2022-12-16T05:52:19;99651.63;;;-9.47;100.00
17072;BME280;7731;50.720;6.912;2022-12-16T05:55:02;99648.59;;;-9.34;100.00
17072;BME280;7731;50.720;6.912;2022-12-16T05:57:48;99650.16;;;-9.39;100.00
17072;BME280;7731;50.720;6.912;2022-12-16T06:00:34;99659.59;;;-9.61;100.00
17072;BME280;7731;50.720;6.912;2022-12-16T06:03:17;99661.25;;;-9.60;100.00
17072;BME280;7731;50.720;6.912;2022-12-16T06:06:00;99664.72;;;-9.55;100.00
17072;BME280;7731;50.720;6.912;2022-12-16T06:08:42;99669.97;;;-9.42;100.00
17072;BME280;7731;50.720;6.912;2022-12-16T06:11:25;99662.06;;;-9.26;100.00
17072;BME280;7731;50.720;6.912;2022-12-16T06:14:07;99671.41;;;-9.51;100.00
17072;BME280;7731;50.720;6.912;2022-12-16T06:16:53;99686.50;;;-9.44;100.00
17072;BME280;7731;50.720;6.912;2022-12-16T06:19:35;99686.25;;;-9.54;100.00
17072;BME280;7731;50.720;6.912;2022-12-16T06:22:19;99684.50;;;-9.59;100.00
17072;BME280;7731;50.720;6.912;2022-12-16T06:25:03;99694.31;;;-9.64;100.00
17072;BME280;7731;50.720;6.912;2022-12-16T06:27:50;99692.69;;;-9.62;100.00
17072;BME280;7731;50.720;6.912;2022-12-16T06:30:32;99702.72;;;-9.59;100.00
17072;BME280;7731;50.720;6.912;2022-12-16T06:33:17;99708.00;;;-9.46;100.00
17072;BME280;7731;50.720;6.912;2022-12-16T06:36:01;99707.78;;;-9.56;100.00
17072;BME280;7731;50.720;6.912;2022-12-16T06:38:50;99710.63;;;-9.40;100.00
17072;BME280;7731;50.720;6.912;2022-12-16T06:41:33;99716.44;;;-9.41;100.00
17072;BME280;7731;50.720;6.912;2022-12-16T06:44:16;99713.03;;;-9.43;100.00
17072;BME280;7731;50.720;6.912;2022-12-16T06:46:58;99722.16;;;-9.44;100.00
17072;BME280;7731;50.720;6.912;2022-12-16T06:49:43;99725.38;;;-9.48;100.00
17072;BME280;7731;50.720;6.912;2022-12-16T06:52:26;99727.75;;;-9.53;100.00
17072;BME280;7731;50.720;6.912;2022-12-16T06:55:08;99732.69;;;-9.54;100.00
17072;BME280;7731;50.720;6.912;2022-12-16T06:57:56;99730.41;;;-9.45;100.00
17072;BME280;7731;50.720;6.912;2022-12-16T07:00:39;99736.41;;;-9.38;100.00
17072;BME280;7731;50.720;6.912;2022-12-16T07:03:21;99746.19;;;-9.44;100.00
17072;BME280;7731;50.720;6.912;2022-12-16T07:06:07;99746.81;;;-9.53;100.00
17072;BME280;7731;50.720;6.912;2022-12-16T07:08:50;99755.41;;;-9.40;100.00
17072;BME280;7731;50.720;6.912;2022-12-16T07:11:32;99759.50;;;-9.42;100.00
17072;BME280;7731;50.720;6.912;2022-12-16T07:14:15;99759.13;;;-9.58;100.00
17072;BME280;7731;50.720;6.912;2022-12-16T07:16:57;99765.28;;;-9.43;100.00
17072;BME280;7731;50.720;6.912;2022-12-16T07:19:43;99763.81;;;-9.37;100.00
17072;BME280;7731;50.720;6.912;2022-12-16T07:22:28;99768.59;;;-9.44;100.00
17072;BME280;7731;50.720;6.912;2022-12-16T07:25:11;99777.84;;;-9.37;100.00
17072;BME280;7731;50.720;6.912;2022-12-16T07:27:54;99784.22;;;-9.48;100.00
17072;BME280;7731;50.720;6.912;2022-12-16T07:30:42;99794.41;;;-9.39;100.00
17072;BME280;7731;50.720;6.912;2022-12-16T07:33:25;99797.00;;;-9.35;100.00
17072;BME280;7731;50.720;6.912;2022-12-16T07:36:08;99801.97;;;-9.35;100.00
17072;BME280;7731;50.720;6.912;2022-12-16T07:38:53;99811.63;;;-9.47;100.00
17072;BME280;7731;50.720;6.912;2022-12-16T07:41:35;99815.38;;;-9.29;100.00
17072;BME280;7731;50.720;6.912;2022-12-16T07:44:18;99827.75;;;-9.31;100.00
17072;BME280;7731;50.720;6.912;2022-12-16T07:47:01;99819.50;;;-9.30;100.00
17072;BME280;7731;50.720;6.912;2022-12-16T07:49:43;99830.09;;;-9.37;100.00
17072;BME280;7731;50.720;6.912;2022-12-16T07:52:26;99846.88;;;-9.30;100.00
17072;BME280;7731;50.720;6.912;2022-12-16T07:55:11;99846.19;;;-9.24;100.00
17072;BME280;7731;50.720;6.912;2022-12-16T07:57:54;99848.81;;;-9.20;100.00
17072;BME280;7731;50.720;6.912;2022-12-16T08:00:36;99851.44;;;-9.13;100.00
17072;BME280;7731;50.720;6.912;2022-12-16T08:03:19;99855.94;;;-8.99;100.00
17072;BME280;7731;50.720;6.912;2022-12-16T08:06:03;99856.16;;;-8.89;100.00
17072;BME280;7731;50.720;6.912;2022-12-16T08:08:46;99847.88;;;-8.90;100.00
17072;BME280;7731;50.720;6.912;2022-12-16T08:11:31;99851.47;;;-8.78;100.00
17072;BME280;7731;50.720;6.912;2022-12-16T08:14:14;99863.69;;;-8.88;100.00
17072;BME280;7731;50.720;6.912;2022-12-16T08:16:56;99861.53;;;-9.09;100.00
17072;BME280;7731;50.720;6.912;2022-12-16T08:19:39;99862.53;;;-8.67;100.00
17072;BME280;7731;50.720;6.912;2022-12-16T08:22:22;99869.94;;;-8.70;100.00
17072;BME280;7731;50.720;6.912;2022-12-16T08:25:06;99859.06;;;-8.72;100.00
17072;BME280;7731;50.720;6.912;2022-12-16T08:27:56;99860.19;;;-8.23;100.00
17072;BME280;7731;50.720;6.912;2022-12-16T08:30:38;99868.34;;;-8.30;100.00
17072;BME280;7731;50.720;6.912;2022-12-16T08:33:21;99863.56;;;-8.21;100.00
17072;BME280;7731;50.720;6.912;2022-12-16T08:36:05;99873.38;;;-8.27;100.00
17072;BME280;7731;50.720;6.912;2022-12-16T08:38:48;99875.47;;;-8.08;100.00
17072;BME280;7731;50.720;6.912;2022-12-16T08:41:31;99885.31;;;-8.14;100.00
17072;BME280;7731;50.720;6.912;2022-12-16T08:44:19;99867.69;;;-7.82;100.00
17072;BME280;7731;50.720;6.912;2022-12-16T08:47:04;99879.34;;;-7.40;100.00
17072;BME280;7731;50.720;6.912;2022-12-16T08:49:55;99882.41;;;-7.09;99.27
17072;BME280;7731;50.720;6.912;2022-12-16T08:52:37;99879.81;;;-7.15;98.22
17072;BME280;7731;50.720;6.912;2022-12-16T08:55:20;99882.25;;;-7.18;100.00
17072;BME280;7731;50.720;6.912;2022-12-16T08:58:21;99894.25;;;-6.98;97.34
17072;BME280;7731;50.720;6.912;2022-12-16T09:01:07;99881.66;;;-6.53;100.00
17072;BME280;7731;50.720;6.912;2022-12-16T09:03:49;99892.66;;;-6.43;99.03
17072;BME280;7731;50.720;6.912;2022-12-16T09:06:32;99893.47;;;-6.44;98.00
17072;BME280;7731;50.720;6.912;2022-12-16T09:09:29;99891.06;;;-5.75;98.27
17072;BME280;7731;50.720;6.912;2022-12-16T09:12:15;99894.66;;;-5.54;94.45
17072;BME280;7731;50.720;6.912;2022-12-16T09:14:57;99896.16;;;-3.82;91.87
17072;BME280;7731;50.720;6.912;2022-12-16T09:17:42;99898.16;;;-2.82;79.79
17072;BME280;7731;50.720;6.912;2022-12-16T09:20:25;99897.16;;;-3.41;78.99
17072;BME280;7731;50.720;6.912;2022-12-16T09:23:18;99902.38;;;-2.55;77.89
17072;BME280;7731;50.720;6.912;2022-12-16T09:26:01;99899.78;;;-1.82;71.62
17072;BME280;7731;50.720;6.912;2022-12-16T09:28:44;99900.59;;;-1.86;71.42
17072;BME280;7731;50.720;6.912;2022-12-16T09:31:26;99907.34;;;-1.94;70.84
17072;BME280;7731;50.720;6.912;2022-12-16T09:34:11;99904.56;;;-1.20;69.30
17072;BME280;7731;50.720;6.912;2022-12-16T09:37:09;99892.59;;;1.92;53.37
17072;BME280;7731;50.720;6.912;2022-12-16T09:39:51;99896.25;;;0.61;57.24
17072;BME280;7731;50.720;6.912;2022-12-16T09:42:46;99895.84;;;0.25;57.95
17072;BME280;7731;50.720;6.912;2022-12-16T09:45:41;99895.03;;;0.20;59.53
17072;BME280;7731;50.720;6.912;2022-12-16T09:48:35;99896.16;;;0.70;60.59
17072;BME280;7731;50.720;6.912;2022-12-16T09:51:24;99910.09;;;1.00;58.78
17072;BME280;7731;50.720;6.912;2022-12-16T09:54:12;99902.50;;;1.55;56.70
17072;BME280;7731;50.720;6.912;2022-12-16T09:57:01;99904.06;;;1.64;55.44
17072;BME280;7731;50.720;6.912;2022-12-16T09:59:53;99918.84;;;1.37;55.71
17072;BME280;7731;50.720;6.912;2022-12-16T10:02:36;99926.91;;;0.34;62.52
17072;BME280;7731;50.720;6.912;2022-12-16T10:05:31;99921.34;;;0.76;60.17
17072;BME280;7731;50.720;6.912;2022-12-16T10:08:42;99935.59;;;1.44;59.02
17072;BME280;7731;50.720;6.912;2022-12-16T10:11:40;99932.56;;;0.55;60.08
17072;BME280;7731;50.720;6.912;2022-12-16T10:14:32;99949.72;;;0.27;65.88
17072;BME280;7731;50.720;6.912;2022-12-16T10:17:22;99943.00;;;0.99;63.96
17072;BME280;7731;50.720;6.912;2022-12-16T10:20:15;99937.13;;;2.51;58.48
17072;BME280;7731;50.720;6.912;2022-12-16T10:23:09;99943.91;;;0.19;63.46
17072;BME280;7731;50.720;6.912;2022-12-16T10:26:04;99944.75;;;0.91;63.29
17072;BME280;7731;50.720;6.912;2022-12-16T10:28:56;99941.34;;;0.95;65.41
17072;BME280;7731;50.720;6.912;2022-12-16T10:31:43;99948.84;;;1.62;62.58
17072;BME280;7731;50.720;6.912;2022-12-16T10:34:29;99944.34;;;1.77;61.03
17072;BME280;7731;50.720;6.912;2022-12-16T10:37:32;99945.38;;;1.66;61.67
17072;BME280;7731;50.720;6.912;2022-12-16T10:40:20;99955.94;;;0.74;67.65
17072;BME280;7731;50.720;6.912;2022-12-16T10:43:16;99949.75;;;0.97;66.74
17072;BME280;7731;50.720;6.912;2022-12-16T10:46:12;99951.63;;;1.98;65.79
17072;BME280;7731;50.720;6.912;2022-12-16T10:48:55;99949.84;;;0.87;67.37
17072;BME280;7731;50.720;6.912;2022-12-16T10:51:40;99948.78;;;0.37;70.63
17072;BME280;7731;50.720;6.912;2022-12-16T10:54:30;99944.97;;;1.37;64.36
17072;BME280;7731;50.720;6.912;2022-12-16T10:57:26;99951.78;;;0.70;71.62
17072;BME280;7731;50.720;6.912;2022-12-16T11:00:18;99947.84;;;2.20;68.45
17072;BME280;7731;50.720;6.912;2022-12-16T11:03:18;99954.88;;;0.91;68.89
17072;BME280;7731;50.720;6.912;2022-12-16T11:06:04;99950.25;;;0.53;75.01
17072;BME280;7731;50.720;6.912;2022-12-16T11:08:47;99952.81;;;0.52;72.96
17072;BME280;7731;50.720;6.912;2022-12-16T11:11:31;99949.53;;;1.15;70.99
17072;BME280;7731;50.720;6.912;2022-12-16T11:14:21;99949.44;;;0.53;74.19
17072;BME280;7731;50.720;6.912;2022-12-16T11:17:18;99955.63;;;0.26;76.08
17072;BME280;7731;50.720;6.912;2022-12-16T11:20:13;99952.31;;;0.21;78.54
17072;BME280;7731;50.720;6.912;2022-12-16T11:23:13;99947.19;;;0.98;74.40
17072;BME280;7731;50.720;6.912;2022-12-16T11:26:11;99955.09;;;0.72;77.94
17072;BME280;7731;50.720;6.912;2022-12-16T11:29:11;99958.56;;;1.30;74.27
17072;BME280;7731;50.720;6.912;2022-12-16T11:32:01;99956.88;;;1.32;73.76
17072;BME280;7731;50.720;6.912;2022-12-16T11:34:52;99959.41;;;1.87;71.55
17072;BME280;7731;50.720;6.912;2022-12-16T11:37:39;99958.03;;;2.17;69.89
17072;BME280;7731;50.720;6.912;2022-12-16T11:40:23;99952.56;;;0.74;75.12
17072;BME280;7731;50.720;6.912;2022-12-16T11:43:08;99955.88;;;1.41;75.05
17072;BME280;7731;50.720;6.912;2022-12-16T11:45:54;99956.59;;;0.88;76.90
17072;BME280;7731;50.720;6.912;2022-12-16T11:48:43;99961.44;;;0.34;80.73
17072;BME280;7731;50.720;6.912;2022-12-16T11:51:35;99956.53;;;0.95;81.20
17072;BME280;7731;50.720;6.912;2022-12-16T11:54:53;99958.81;;;0.43;82.95
17072;BME280;7731;50.720;6.912;2022-12-16T11:58:22;99969.09;;;0.28;82.37
17072;BME280;7731;50.720;6.912;2022-12-16T12:01:14;99976.03;;;0.04;89.47
17072;BME280;7731;50.720;6.912;2022-12-16T12:03:58;99967.09;;;0.56;87.53
17072;BME280;7731;50.720;6.912;2022-12-16T12:07:17;99976.59;;;0.35;83.83
17072;BME280;7731;50.720;6.912;2022-12-16T12:10:20;99980.63;;;-0.44;87.25
17072;BME280;7731;50.720;6.912;2022-12-16T12:13:21;99971.06;;;-0.05;89.01
17072;BME280;7731;50.720;6.912;2022-12-16T12:16:19;99972.78;;;-0.10;90.21
17072;BME280;7731;50.720;6.912;2022-12-16T12:19:13;99983.03;;;-0.26;91.58
17072;BME280;7731;50.720;6.912;2022-12-16T12:22:31;99990.75;;;-0.46;93.10
17072;BME280;7731;50.720;6.912;2022-12-16T12:25:23;99984.69;;;-0.25;94.83
17072;BME280;7731;50.720;6.912;2022-12-16T12:28:24;99992.53;;;-0.68;94.09
17072;BME280;7731;50.720;6.912;2022-12-16T12:31:28;99995.28;;;-1.14;97.13
17072;BME280;7731;50.720;6.912;2022-12-16T12:34:23;99998.56;;;-0.89;99.98
17072;BME280;7731;50.720;6.912;2022-12-16T12:37:19;99996.75;;;-0.67;99.79
17072;BME280;7731;50.720;6.912;2022-12-16T12:40:24;99994.06;;;-0.39;97.66
17072;BME280;7731;50.720;6.912;2022-12-16T12:43:25;99991.09;;;0.13;92.35
17072;BME280;7731;50.720;6.912;2022-12-16T12:46:20;100005.13;;;-0.62;95.67
17072;BME280;7731;50.720;6.912;2022-12-16T12:49:14;100012.03;;;-0.95;97.72
17072;BME280;7731;50.720;6.912;2022-12-16T12:52:09;100023.06;;;-1.27;99.21
17072;BME280;7731;50.720;6.912;2022-12-16T12:55:08;100020.63;;;-2.31;100.00
17072;BME280;7731;50.720;6.912;2022-12-16T12:57:59;100016.41;;;-2.46;100.00
17072;BME280;7731;50.720;6.912;2022-12-16T13:00:52;100011.38;;;-2.34;100.00
17072;BME280;7731;50.720;6.912;2022-12-16T13:03:42;100008.81;;;-2.66;100.00
17072;BME280;7731;50.720;6.912;2022-12-16T13:06:28;100020.47;;;-2.93;100.00
17072;BME280;7731;50.720;6.912;2022-12-16T13:09:31;100024.63;;;-3.00;100.00
17072;BME280;7731;50.720;6.912;2022-12-16T13:12:27;100021.44;;;-2.39;100.00
17072;BME280;7731;50.720;6.912;2022-12-16T13:15:34;100028.94;;;-2.63;100.00
17072;BME280;7731;50.720;6.912;2022-12-16T13:18:25;100028.91;;;-2.73;100.00
17072;BME280;7731;50.720;6.912;2022-12-16T13:21:47;100023.78;;;-3.07;100.00
17072;BME280;7731;50.720;6.912;2022-12-16T13:24:45;100028.97;;;-2.57;100.00
17072;BME280;7731;50.720;6.912;2022-12-16T13:27:50;100028.94;;;-2.70;100.00
17072;BME280;7731;50.720;6.912;2022-12-16T13:30:34;100035.56;;;-2.93;100.00
17072;BME280;7731;50.720;6.912;2022-12-16T13:33:34;100030.47;;;-3.06;100.00
17072;BME280;7731;50.720;6.912;2022-12-16T13:36:18;100040.66;;;-2.72;100.00
17072;BME280;7731;50.720;6.912;2022-12-16T13:39:21;100043.13;;;-2.82;100.00
17072;BME280;7731;50.720;6.912;2022-12-16T13:42:05;100051.53;;;-2.77;100.00
17072;BME280;7731;50.720;6.912;2022-12-16T13:44:58;100060.50;;;-3.27;100.00
17072;BME280;7731;50.720;6.912;2022-12-16T13:48:03;100063.66;;;-3.62;100.00
17072;BME280;7731;50.720;6.912;2022-12-16T13:50:49;100062.00;;;-3.54;100.00
17072;BME280;7731;50.720;6.912;2022-12-16T13:53:37;100063.94;;;-3.14;100.00
17072;BME280;7731;50.720;6.912;2022-12-16T13:56:29;100068.94;;;-3.19;100.00
17072;BME280;7731;50.720;6.912;2022-12-16T13:59:20;100079.09;;;-2.97;100.00
17072;BME280;7731;50.720;6.912;2022-12-16T14:02:25;100086.72;;;-2.82;100.00
17072;BME280;7731;50.720;6.912;2022-12-16T14:05:18;100082.38;;;-3.11;100.00
17072;BME280;7731;50.720;6.912;2022-12-16T14:08:11;100076.72;;;-2.60;100.00
17072;BME280;7731;50.720;6.912;2022-12-16T14:11:01;100087.38;;;-3.17;100.00
17072;BME280;7731;50.720;6.912;2022-12-16T14:14:05;100095.78;;;-3.15;100.00
17072;BME280;7731;50.720;6.912;2022-12-16T14:16:56;100099.09;;;-3.19;100.00
17072;BME280;7731;50.720;6.912;2022-12-16T14:19:57;100098.00;;;-3.52;100.00
17072;BME280;7731;50.720;6.912;2022-12-16T14:22:59;100098.88;;;-3.50;100.00
17072;BME280;7731;50.720;6.912;2022-12-16T14:26:11;100103.94;;;-3.47;100.00
17072;BME280;7731;50.720;6.912;2022-12-16T14:28:55;100112.44;;;-3.25;100.00
17072;BME280;7731;50.720;6.912;2022-12-16T14:31:52;100115.03;;;-3.11;100.00
17072;BME280;7731;50.720;6.912;2022-12-16T14:34:38;100105.19;;;-2.66;100.00
17072;BME280;7731;50.720;6.912;2022-12-16T14:37:35;100108.44;;;-2.96;100.00
17072;BME280;7731;50.720;6.912;2022-12-16T14:40:21;100115.03;;;-3.11;100.00